createdAt,value
2018-02-14T00:00:57.634Z,17.85
2018-02-14T00:03:26.738Z,14.45
2018-02-14T00:05:55.590Z,15.70
2018-02-14T00:08:24.723Z,15.80
2018-02-14T00:10:54.197Z,17.55
2018-02-14T00:13:22.912Z,14.82
2018-02-14T00:15:52.390Z,15.95
2018-02-14T00:18:21.505Z,17.90
2018-02-14T00:20:50.710Z,19.02
2018-02-14T00:23:19.813Z,15.32
2018-02-14T00:25:48.933Z,18.85
2018-02-14T00:28:18.411Z,13.70
2018-02-14T00:30:47.522Z,16.60
2018-02-14T00:33:16.620Z,16.60
2018-02-14T00:35:45.858Z,14.43
2018-02-14T00:38:15.333Z,14.55
2018-02-14T00:40:44.457Z,15.00
2018-02-14T00:43:14.298Z,15.45
2018-02-14T00:45:43.794Z,16.12
2018-02-14T00:48:12.509Z,22.85
2018-02-14T00:50:41.234Z,16.80
2018-02-14T00:53:10.508Z,16.67
2018-02-14T00:55:40.010Z,18.52
2018-02-14T00:58:09.562Z,21.80
2018-02-14T01:00:38.682Z,13.65
2018-02-14T01:03:07.778Z,15.75
2018-02-14T01:05:36.901Z,19.37
2018-02-14T01:08:06.011Z,14.50
2018-02-14T01:10:35.515Z,18.20
2018-02-14T01:13:04.626Z,20.12
2018-02-14T01:15:33.761Z,26.90
2018-02-14T01:18:03.087Z,19.45
2018-02-14T01:20:34.981Z,17.77
2018-02-14T01:23:04.486Z,17.75
2018-02-14T01:25:33.597Z,17.40
2018-02-14T01:28:02.721Z,19.80
2018-02-14T01:30:31.823Z,22.40
2018-02-14T01:33:01.286Z,20.08
2018-02-14T01:35:30.405Z,17.02
2018-02-14T01:37:59.501Z,20.50
2018-02-14T01:40:28.625Z,13.68
2018-02-14T01:42:57.599Z,18.48
2018-02-14T01:45:26.331Z,19.60
2018-02-14T01:47:55.451Z,19.65
2018-02-14T01:50:35.812Z,20.85
2018-02-14T01:53:05.367Z,18.77
2018-02-14T01:55:34.490Z,15.60
2018-02-14T01:58:03.393Z,17.48
2018-02-14T02:00:32.870Z,18.52
2018-02-14T02:03:02.030Z,20.10
2018-02-14T02:05:31.141Z,12.57
2018-02-14T02:08:00.640Z,15.77
2018-02-14T02:10:29.747Z,16.45
2018-02-14T02:12:58.483Z,25.45
2018-02-14T02:15:28.734Z,17.98
2018-02-14T02:17:58.361Z,19.50
2018-02-14T02:20:26.826Z,18.85
2018-02-14T02:22:55.919Z,25.98
2018-02-14T02:25:25.043Z,21.02
2018-02-14T02:27:54.306Z,24.23
2018-02-14T02:30:23.422Z,18.42
2018-02-14T02:32:52.539Z,21.67
2018-02-14T02:35:21.645Z,23.73
2018-02-14T02:37:51.123Z,18.37
2018-02-14T02:40:32.889Z,22.67
2018-02-14T02:43:01.601Z,25.83
2018-02-14T02:45:30.739Z,20.05
2018-02-14T02:47:59.870Z,21.67
2018-02-14T02:50:29.358Z,19.70
2018-02-14T02:52:58.483Z,23.23
2018-02-14T02:55:27.962Z,19.80
2018-02-14T02:57:57.458Z,21.50
2018-02-14T03:00:26.166Z,20.10
2018-02-14T03:02:55.415Z,23.65
2018-02-14T03:05:24.534Z,22.58
2018-02-14T03:07:54.014Z,18.35
2018-02-14T03:10:23.130Z,18.80
2018-02-14T03:12:52.250Z,22.25
2018-02-14T03:15:21.556Z,20.83
2018-02-14T03:17:50.655Z,17.55
2018-02-14T03:20:20.147Z,23.48
2018-02-14T03:22:49.242Z,23.27
2018-02-14T03:25:18.370Z,18.42
2018-02-14T03:27:47.466Z,21.12
2018-02-14T03:30:16.590Z,25.50
2018-02-14T03:32:46.062Z,21.95
2018-02-14T03:35:16.302Z,19.10
2018-02-14T03:37:45.403Z,20.52
2018-02-14T03:40:14.634Z,18.50
2018-02-14T03:42:43.929Z,23.12
2018-02-14T03:45:13.397Z,23.80
2018-02-14T03:47:42.516Z,22.42
2018-02-14T03:50:11.998Z,16.98
2018-02-14T03:52:40.726Z,25.08
2018-02-14T03:55:10.207Z,20.02
2018-02-14T03:57:39.130Z,21.52
2018-02-14T04:00:07.914Z,21.02
2018-02-14T04:02:37.386Z,18.58
2018-02-14T04:05:06.330Z,22.35
2018-02-14T04:07:35.819Z,19.90
2018-02-14T04:10:04.949Z,20.02
2018-02-14T04:12:34.054Z,24.10
2018-02-14T04:15:03.542Z,20.58
2018-02-14T04:17:32.749Z,19.58
2018-02-14T04:20:01.874Z,21.42
2018-02-14T04:22:30.974Z,21.15
2018-02-14T04:25:00.267Z,26.85
2018-02-14T04:27:29.746Z,25.60
2018-02-14T04:29:58.926Z,25.30
2018-02-14T04:32:28.027Z,21.20
2018-02-14T04:34:57.526Z,20.50
2018-02-14T04:37:26.635Z,21.40
2018-02-14T04:39:55.754Z,21.23
2018-02-14T04:42:24.926Z,23.85
2018-02-14T04:44:54.421Z,23.33
2018-02-14T04:47:23.534Z,24.95
2018-02-14T04:49:52.637Z,24.63
2018-02-14T04:52:22.126Z,23.95
2018-02-14T04:54:51.222Z,23.92
2018-02-14T04:57:20.339Z,20.75
2018-02-14T04:59:49.638Z,22.33
2018-02-14T05:02:18.794Z,24.40
2018-02-14T05:04:47.897Z,25.20
2018-02-14T05:07:17.014Z,19.62
2018-02-14T05:09:46.490Z,26.85
2018-02-14T05:12:15.636Z,26.55
2018-02-14T05:14:44.789Z,23.70
2018-02-14T05:17:13.889Z,25.48
2018-02-14T05:19:43.397Z,20.75
2018-02-14T05:22:12.319Z,22.42
2018-02-14T05:24:41.802Z,25.25
2018-02-14T05:27:10.567Z,24.42
2018-02-14T05:29:40.035Z,25.10
2018-02-14T05:32:09.147Z,21.23
2018-02-14T05:34:38.258Z,25.45
2018-02-14T05:37:07.731Z,26.17
2018-02-14T05:39:36.446Z,24.90
2018-02-14T05:42:05.164Z,21.30
2018-02-14T05:44:34.279Z,21.33
2018-02-14T05:47:03.415Z,27.23
2018-02-14T05:49:32.900Z,24.02
2018-02-14T05:52:02.015Z,23.60
2018-02-14T05:54:31.237Z,27.13
2018-02-14T05:57:00.350Z,24.58
2018-02-14T05:59:29.834Z,30.25
2018-02-14T06:01:58.959Z,23.00
2018-02-14T06:04:28.450Z,27.77
2018-02-14T06:06:57.774Z,25.85
2018-02-14T06:09:26.581Z,23.77
2018-02-14T06:11:56.047Z,29.42
2018-02-14T06:14:25.292Z,26.75
2018-02-14T06:16:54.397Z,37.00
2018-02-14T06:19:23.110Z,32.33
2018-02-14T06:21:52.222Z,31.65
2018-02-14T06:24:21.393Z,28.40
2018-02-14T06:26:50.510Z,30.98
2018-02-14T06:29:19.645Z,27.70
2018-02-14T06:31:49.137Z,30.40
2018-02-14T06:34:17.909Z,29.35
2018-02-14T06:36:47.456Z,31.17
2018-02-14T06:39:16.582Z,36.00
2018-02-14T06:41:45.765Z,29.52
2018-02-14T06:44:15.359Z,31.35
2018-02-14T06:46:44.850Z,31.23
2018-02-14T06:49:14.352Z,27.52
2018-02-14T06:51:43.605Z,30.92
2018-02-14T06:54:12.715Z,32.20
2018-02-14T06:56:41.838Z,29.40
2018-02-14T06:59:10.540Z,29.17
2018-02-14T07:01:39.682Z,32.17
2018-02-14T07:04:08.793Z,29.63
2018-02-14T07:06:38.309Z,30.80
2018-02-14T07:09:06.739Z,27.45
2018-02-14T07:11:36.214Z,27.25
2018-02-14T07:14:05.797Z,40.50
2018-02-14T07:16:35.644Z,55.65
2018-02-14T07:19:04.388Z,187.40
2018-02-14T07:21:33.498Z,318.63
2018-02-14T07:24:02.991Z,229.07
2018-02-14T07:26:32.086Z,199.85
2018-02-14T07:29:01.582Z,103.40
2018-02-14T07:31:30.681Z,105.32
2018-02-14T07:33:59.877Z,78.97
2018-02-14T07:36:29.360Z,97.88
2018-02-14T07:38:58.483Z,67.45
2018-02-14T07:41:27.586Z,50.45
2018-02-14T07:43:56.306Z,50.60
2018-02-14T07:46:25.593Z,61.97
2018-02-14T07:48:54.306Z,38.53
2018-02-14T07:51:23.882Z,45.10
2018-02-14T07:53:52.973Z,49.92
2018-02-14T07:56:22.082Z,33.33
2018-02-14T07:58:51.183Z,29.95
2018-02-14T08:01:19.888Z,31.45
2018-02-14T08:03:48.623Z,30.45
2018-02-14T08:06:18.103Z,27.98
2018-02-14T08:08:47.587Z,30.33
2018-02-14T08:11:16.298Z,28.85
2018-02-14T08:13:45.810Z,30.90
2018-02-14T08:16:15.008Z,29.12
2018-02-14T08:18:44.134Z,34.42
2018-02-14T08:21:13.233Z,25.10
2018-02-14T08:23:42.734Z,28.30
2018-02-14T08:26:11.877Z,32.35
2018-02-14T08:28:41.353Z,27.42
2018-02-14T08:31:10.466Z,31.83
2018-02-14T08:33:39.586Z,28.40
2018-02-14T08:36:09.066Z,29.70
2018-02-14T08:38:37.923Z,29.10
2018-02-14T08:41:07.391Z,29.90
2018-02-14T08:43:36.513Z,34.67
2018-02-14T08:46:05.625Z,29.73
2018-02-14T08:48:35.113Z,37.45
2018-02-14T08:51:04.337Z,34.53
2018-02-14T08:53:33.433Z,30.42
2018-02-14T08:56:02.537Z,30.15
2018-02-14T08:58:32.007Z,33.42
2018-02-14T09:01:01.120Z,28.87
2018-02-14T09:03:30.237Z,33.58
2018-02-14T09:05:59.723Z,35.63
2018-02-14T09:08:28.833Z,31.20
2018-02-14T09:10:58.622Z,31.37
2018-02-14T09:13:27.335Z,34.05
2018-02-14T09:15:56.493Z,36.80
2018-02-14T09:18:26.014Z,32.95
2018-02-14T09:20:55.138Z,32.92
2018-02-14T09:23:24.626Z,33.28
2018-02-14T09:25:54.094Z,32.33
2018-02-14T09:28:23.208Z,29.37
2018-02-14T09:30:52.506Z,44.92
2018-02-14T09:33:21.645Z,31.37
2018-02-14T09:35:50.757Z,31.20
2018-02-14T09:38:19.484Z,29.90
2018-02-14T09:40:48.197Z,29.45
2018-02-14T09:43:17.708Z,29.25
2018-02-14T09:45:46.802Z,34.13
2018-02-14T09:48:15.921Z,31.27
2018-02-14T09:50:45.443Z,29.58
2018-02-14T09:53:14.570Z,28.92
2018-02-14T09:55:43.686Z,28.48
2018-02-14T09:58:12.390Z,26.65
2018-02-14T10:00:41.886Z,28.12
2018-02-14T10:03:10.999Z,30.60
2018-02-14T10:05:40.481Z,26.00
2018-02-14T10:08:09.583Z,27.00
2018-02-14T10:10:38.312Z,31.58
2018-02-14T10:13:07.430Z,29.00
2018-02-14T10:15:36.562Z,26.37
2018-02-14T10:18:05.677Z,34.90
2018-02-14T10:20:34.994Z,26.52
2018-02-14T10:23:04.093Z,28.73
2018-02-14T10:25:33.558Z,26.33
2018-02-14T10:28:03.057Z,30.00
2018-02-14T10:30:32.228Z,34.65
2018-02-14T10:33:01.899Z,28.65
2018-02-14T10:35:30.753Z,27.70
2018-02-14T10:37:59.881Z,28.67
2018-02-14T10:40:28.598Z,32.50
2018-02-14T10:42:58.078Z,27.75
2018-02-14T10:45:27.562Z,31.48
2018-02-14T10:47:56.889Z,28.90
2018-02-14T10:50:25.618Z,31.00
2018-02-14T10:52:54.350Z,35.67
2018-02-14T10:55:23.510Z,26.95
2018-02-14T10:57:52.622Z,26.87
2018-02-14T11:00:27.070Z,32.20
2018-02-14T11:03:01.362Z,27.13
2018-02-14T11:05:32.873Z,24.92
2018-02-14T11:08:02.359Z,24.63
2018-02-14T11:10:31.062Z,22.73
2018-02-14T11:13:00.174Z,29.30
2018-02-14T11:15:29.652Z,25.98
2018-02-14T11:17:58.765Z,24.63
2018-02-14T11:20:27.870Z,25.58
2018-02-14T11:22:57.354Z,27.75
2018-02-14T11:25:26.530Z,23.40
2018-02-14T11:27:56.002Z,30.20
2018-02-14T11:30:25.102Z,26.87
2018-02-14T11:32:54.040Z,35.72
2018-02-14T11:35:23.146Z,28.55
2018-02-14T11:37:52.622Z,27.87
2018-02-14T11:40:22.863Z,24.15
2018-02-14T11:42:51.962Z,24.67
2018-02-14T11:45:21.156Z,23.40
2018-02-14T11:47:50.258Z,26.50
2018-02-14T11:50:19.030Z,24.67
2018-02-14T11:52:47.755Z,32.40
2018-02-14T11:55:17.235Z,27.62
2018-02-14T11:57:45.935Z,28.50
2018-02-14T12:00:14.641Z,24.55
2018-02-14T12:02:44.111Z,26.65
2018-02-14T12:05:12.823Z,27.02
2018-02-14T12:07:41.534Z,22.62
2018-02-14T12:10:10.232Z,26.08
2018-02-14T12:12:38.975Z,27.55
2018-02-14T12:15:09.200Z,23.60
2018-02-14T12:17:38.034Z,26.42
2018-02-14T12:20:06.758Z,22.13
2018-02-14T12:22:35.478Z,25.05
2018-02-14T12:25:04.946Z,22.77
2018-02-14T12:27:33.691Z,24.77
2018-02-14T12:30:03.167Z,23.65
2018-02-14T12:32:32.085Z,25.30
2018-02-14T12:35:00.822Z,24.25
2018-02-14T12:37:29.528Z,21.20
2018-02-14T12:39:58.752Z,19.77
2018-02-14T12:42:27.190Z,27.20
2018-02-14T12:44:55.630Z,23.50
2018-02-14T12:47:24.331Z,21.70
2018-02-14T12:49:52.782Z,20.00
2018-02-14T12:52:22.256Z,22.33
2018-02-14T12:54:50.990Z,21.87
2018-02-14T12:57:20.485Z,23.85
2018-02-14T12:59:48.934Z,18.50
2018-02-14T13:02:17.821Z,19.27
2018-02-14T13:04:47.031Z,19.13
2018-02-14T13:07:16.269Z,20.50
2018-02-14T13:09:46.030Z,21.53
2018-02-14T13:12:14.279Z,21.50
2018-02-14T13:14:42.706Z,20.50
2018-02-14T13:17:11.427Z,17.52
2018-02-14T13:19:40.549Z,17.98
2018-02-14T13:22:09.662Z,22.95
2018-02-14T13:24:38.089Z,20.53
2018-02-14T13:27:07.247Z,16.40
2018-02-14T13:29:35.976Z,14.80
2018-02-14T13:32:04.838Z,18.00
2018-02-14T13:34:34.045Z,17.23
2018-02-14T13:37:03.267Z,18.20
2018-02-14T13:39:31.723Z,15.07
2018-02-14T13:42:00.237Z,16.20
2018-02-14T13:44:28.661Z,16.07
2018-02-14T13:46:57.133Z,14.00
2018-02-14T13:49:25.841Z,19.25
2018-02-14T13:51:54.733Z,17.73
2018-02-14T13:54:23.171Z,17.90
2018-02-14T13:56:51.610Z,16.53
2018-02-14T13:59:22.390Z,16.87
2018-02-14T14:01:51.110Z,18.73
2018-02-14T14:04:19.559Z,17.93
2018-02-14T14:06:47.998Z,18.80
2018-02-14T14:09:17.227Z,19.20
2018-02-14T14:11:45.655Z,17.10
2018-02-14T14:14:14.113Z,18.00
2018-02-14T14:16:42.542Z,14.00
2018-02-14T14:19:11.579Z,15.73
2018-02-14T14:21:40.021Z,18.60
2018-02-14T14:24:09.251Z,17.83
2018-02-14T14:26:37.710Z,16.70
2018-02-14T14:29:06.908Z,14.83
2018-02-14T14:31:36.190Z,15.97
2018-02-14T14:34:04.618Z,15.90
2018-02-14T14:36:33.100Z,14.10
2018-02-14T14:39:02.458Z,13.20
2018-02-14T14:41:30.903Z,14.50
2018-02-14T14:43:59.333Z,14.13
2018-02-14T14:46:28.318Z,13.10
2018-02-14T14:48:57.522Z,13.77
2018-02-14T14:51:26.730Z,13.57
2018-02-14T14:53:55.963Z,13.40
2018-02-14T14:56:24.809Z,12.70
2018-02-14T14:58:53.246Z,13.60
2018-02-14T15:01:21.666Z,15.67
2018-02-14T15:03:50.202Z,12.83
2018-02-14T15:06:19.040Z,12.33
2018-02-14T15:08:48.257Z,13.90
2018-02-14T15:11:17.472Z,14.07
2018-02-14T15:13:46.688Z,13.57
2018-02-14T15:16:15.123Z,11.20
2018-02-14T15:18:43.962Z,14.53
2018-02-14T15:21:12.390Z,18.10
2018-02-14T15:23:40.826Z,12.00
2018-02-14T15:26:12.283Z,14.60
2018-02-14T15:28:41.266Z,11.33
2018-02-14T15:31:09.691Z,11.10
2018-02-14T15:33:38.266Z,9.93
2018-02-14T15:36:06.715Z,14.43
2018-02-14T15:38:35.191Z,14.33
2018-02-14T15:41:04.036Z,11.60
2018-02-14T15:43:32.850Z,10.27
2018-02-14T15:46:02.076Z,12.63
2018-02-14T15:48:30.497Z,10.73
2018-02-14T15:50:58.939Z,10.13
2018-02-14T15:53:27.378Z,12.80
2018-02-14T15:55:55.886Z,11.70
2018-02-14T15:58:24.721Z,13.70
2018-02-14T16:00:53.558Z,12.53
2018-02-14T16:03:22.408Z,10.80
2018-02-14T16:05:51.614Z,13.17
2018-02-14T16:08:20.457Z,11.10
2018-02-14T16:10:49.674Z,11.50
2018-02-14T16:13:19.270Z,9.80
2018-02-14T16:15:47.727Z,13.13
2018-02-14T16:18:16.630Z,13.93
2018-02-14T16:20:45.479Z,14.00
2018-02-14T16:23:14.767Z,13.30
2018-02-14T16:25:43.198Z,11.87
2018-02-14T16:28:12.689Z,13.65
2018-02-14T16:30:41.425Z,12.45
2018-02-14T16:33:10.640Z,12.50
2018-02-14T16:35:39.778Z,11.35
2018-02-14T16:38:08.490Z,13.77
2018-02-14T16:40:36.962Z,10.33
2018-02-14T16:43:07.186Z,10.63
2018-02-14T16:45:35.910Z,11.60
2018-02-14T16:48:04.617Z,16.40
2018-02-14T16:50:33.766Z,10.50
2018-02-14T16:53:02.866Z,14.15
2018-02-14T16:55:31.698Z,13.38
2018-02-14T16:58:00.399Z,11.85
2018-02-14T17:00:29.114Z,9.93
2018-02-14T17:02:57.846Z,16.30
2018-02-14T17:05:27.348Z,11.95
2018-02-14T17:07:56.562Z,11.65
2018-02-14T17:10:25.670Z,12.35
2018-02-14T17:12:54.399Z,12.45
2018-02-14T17:15:23.149Z,13.10
2018-02-14T17:17:52.647Z,17.20
2018-02-14T17:20:22.213Z,13.85
2018-02-14T17:22:50.973Z,11.25
2018-02-14T17:25:19.696Z,11.80
2018-02-14T17:27:48.418Z,16.95
2018-02-14T17:30:17.134Z,13.62
2018-02-14T17:32:45.846Z,12.35
2018-02-14T17:35:14.575Z,13.43
2018-02-14T17:37:43.707Z,16.75
2018-02-14T17:40:12.440Z,15.02
2018-02-14T17:42:41.560Z,14.27
2018-02-14T17:45:10.698Z,13.18
2018-02-14T17:47:39.391Z,11.80
2018-02-14T17:50:08.171Z,11.60
2018-02-14T17:52:36.883Z,11.35
2018-02-14T17:55:07.118Z,10.98
2018-02-14T17:57:36.598Z,13.80
2018-02-14T18:00:05.734Z,11.45
2018-02-14T18:02:35.216Z,13.10
2018-02-14T18:05:04.532Z,10.80
2018-02-14T18:07:33.632Z,11.65
2018-02-14T18:10:02.344Z,16.25
2018-02-14T18:12:31.662Z,14.73
2018-02-14T18:15:01.151Z,16.92
2018-02-14T18:17:30.659Z,12.63
2018-02-14T18:20:00.135Z,11.80
2018-02-14T18:22:29.626Z,13.30
2018-02-14T18:24:58.355Z,13.23
2018-02-14T18:27:27.610Z,16.52
2018-02-14T18:29:56.720Z,14.35
2018-02-14T18:32:25.861Z,15.32
2018-02-14T18:34:54.973Z,13.30
2018-02-14T18:37:24.456Z,11.27
2018-02-14T18:39:53.595Z,14.30
2018-02-14T18:42:23.070Z,13.40
2018-02-14T18:44:52.544Z,15.80
2018-02-14T18:47:21.281Z,11.68
2018-02-14T18:49:50.783Z,16.45
2018-02-14T18:52:19.913Z,17.23
2018-02-14T18:54:49.055Z,16.00
2018-02-14T18:57:18.618Z,12.37
2018-02-14T18:59:47.789Z,13.75
2018-02-14T19:02:16.881Z,12.80
2018-02-14T19:04:46.022Z,13.75
2018-02-14T19:07:15.503Z,14.30
2018-02-14T19:09:44.630Z,14.00
2018-02-14T19:12:13.748Z,13.25
2018-02-14T19:14:43.251Z,14.20
2018-02-14T19:17:12.416Z,11.15
2018-02-14T19:19:41.964Z,12.57
2018-02-14T19:22:11.152Z,17.73
2018-02-14T19:24:40.278Z,17.95
2018-02-14T19:27:09.390Z,13.55
2018-02-14T19:29:38.586Z,13.38
2018-02-14T19:32:07.294Z,11.75
2018-02-14T19:34:36.424Z,10.15
2018-02-14T19:37:05.931Z,14.38
2018-02-14T19:39:34.766Z,14.38
2018-02-14T19:42:04.794Z,17.58
2018-02-14T19:44:33.951Z,17.77
2018-02-14T19:47:03.103Z,14.02
2018-02-14T19:49:32.610Z,14.70
2018-02-14T19:52:01.738Z,16.00
2018-02-14T19:54:30.442Z,13.10
2018-02-14T19:56:59.962Z,16.33
2018-02-14T19:59:29.446Z,12.40
2018-02-14T20:01:59.059Z,16.00
2018-02-14T20:04:28.183Z,19.85
2018-02-14T20:06:57.289Z,16.23
2018-02-14T20:09:26.037Z,22.55
2018-02-14T20:11:55.506Z,23.33
2018-02-14T20:14:24.656Z,17.25
2018-02-14T20:16:53.780Z,25.98
2018-02-14T20:19:23.065Z,16.75
2018-02-14T20:21:52.194Z,21.40
2018-02-14T20:24:21.380Z,18.90
2018-02-14T20:26:50.172Z,18.42
2018-02-14T20:29:19.017Z,13.77
2018-02-14T20:31:48.498Z,17.33
2018-02-14T20:34:17.306Z,17.37
2018-02-14T20:36:46.018Z,13.60
2018-02-14T20:39:15.507Z,17.75
2018-02-14T20:41:45.130Z,14.02
2018-02-14T20:44:14.665Z,17.37
2018-02-14T20:46:43.534Z,15.25
2018-02-14T20:49:12.252Z,15.23
2018-02-14T20:51:40.978Z,16.10
2018-02-14T20:54:09.694Z,14.68
2018-02-14T20:56:39.194Z,15.73
2018-02-14T20:59:08.693Z,13.93
2018-02-14T21:01:37.437Z,11.70
2018-02-14T21:04:06.155Z,17.17
2018-02-14T21:06:34.884Z,18.58
2018-02-14T21:09:03.114Z,15.90
2018-02-14T21:11:31.841Z,19.17
2018-02-14T21:14:01.328Z,14.20
2018-02-14T21:16:30.038Z,17.12
2018-02-14T21:18:59.514Z,12.93
2018-02-14T21:21:28.216Z,13.55
2018-02-14T21:23:57.695Z,15.05
2018-02-14T21:26:26.394Z,13.55
2018-02-14T21:28:55.110Z,17.33
2018-02-14T21:31:24.590Z,12.20
2018-02-14T21:33:53.358Z,14.27
2018-02-14T21:36:22.084Z,13.25
2018-02-14T21:38:51.603Z,13.85
2018-02-14T21:41:20.327Z,14.00
2018-02-14T21:43:49.047Z,15.25
2018-02-14T21:46:18.145Z,18.20
2018-02-14T21:48:46.863Z,13.20
2018-02-14T21:51:15.775Z,13.85
2018-02-14T21:53:44.496Z,16.05
2018-02-14T21:56:13.239Z,20.00
2018-02-14T21:58:41.958Z,15.43
2018-02-14T22:01:10.670Z,17.67
2018-02-14T22:03:39.386Z,12.93
2018-02-14T22:06:08.885Z,14.80
2018-02-14T22:08:38.374Z,11.82
2018-02-14T22:11:07.080Z,23.95
2018-02-14T22:13:36.592Z,16.15
2018-02-14T22:16:06.121Z,14.07
2018-02-14T22:18:34.838Z,16.02
2018-02-14T22:21:03.611Z,14.18
2018-02-14T22:23:32.350Z,19.15
2018-02-14T22:26:01.290Z,18.87
2018-02-14T22:28:30.062Z,24.85
2018-02-14T22:30:58.803Z,17.27
2018-02-14T22:33:27.584Z,16.35
2018-02-14T22:35:56.299Z,16.40
2018-02-14T22:38:25.067Z,17.83
2018-02-14T22:40:53.775Z,14.65
2018-02-14T22:43:22.497Z,15.80
2018-02-14T22:45:51.203Z,20.85
2018-02-14T22:48:20.126Z,19.77
2018-02-14T22:50:48.842Z,16.58
2018-02-14T22:53:17.975Z,16.67
2018-02-14T22:55:46.701Z,19.65
2018-02-14T22:58:15.402Z,16.15
2018-02-14T23:00:44.162Z,15.77
2018-02-14T23:03:12.888Z,17.20
2018-02-14T23:05:41.613Z,13.15
2018-02-14T23:08:09.990Z,16.27
2018-02-14T23:10:38.718Z,15.63
2018-02-14T23:13:07.434Z,19.15
2018-02-14T23:15:36.907Z,20.25
2018-02-14T23:18:05.644Z,16.40
2018-02-14T23:20:34.376Z,20.12
2018-02-14T23:23:03.501Z,20.73
2018-02-14T23:25:32.320Z,20.98
2018-02-14T23:28:01.787Z,23.50
2018-02-14T23:30:30.514Z,20.33
2018-02-14T23:32:59.981Z,22.98
2018-02-14T23:35:28.727Z,24.15
2018-02-14T23:37:57.443Z,21.87
2018-02-14T23:40:26.166Z,26.83
2018-02-14T23:42:55.645Z,23.55
2018-02-14T23:45:24.354Z,26.83
2018-02-14T23:47:53.163Z,23.00
2018-02-14T23:50:22.666Z,25.17
2018-02-14T23:52:52.169Z,40.12
2018-02-14T23:55:20.882Z,22.35
2018-02-14T23:57:49.669Z,22.33
